RYR4696 GCRR-LEAL
Flight info
| Callsign | RYR4696 |
|---|---|
| Flight time | 2h 9m |
| Altitude | 36000 |
| Route | KORAL UG5 SONSO DCT NIRAL UN871 OSDAM UM985 BARPA DCT XAVIR DCT PIMOS M445 RIXUR N851 RESTU |
| Aircraft | B738/M-SDE2E3FGHIRWXY/LB1 |
Departure
| Time | 2026-05-07 05:03 |
|---|---|
| Airport | César Manrique-Lanzarote Airport (GCRR) |
Arrival
| Time | 2026-05-07 07:12 |
|---|---|
| Airport | Alicante-Elche Miguel Hernández Airport (LEAL) |
| Time | Latitude | Longitude | Altitude | Speed | Heading |
|---|---|---|---|---|---|
| 2026-05-07 04:31 | 28.94912 | -13.60810 | 49 ft | 0 kts | 298° |
| 2026-05-07 04:55 | 28.94903 | -13.60790 | 49 ft | 4 kts | 294° |
| 2026-05-07 04:55 | 28.94894 | -13.60767 | 48 ft | 3 kts | 296° |
| 2026-05-07 04:55 | 28.94881 | -13.60742 | 46 ft | 4 kts | 314° |
| 2026-05-07 04:56 | 28.94860 | -13.60728 | 47 ft | 4 kts | 1° |
| 2026-05-07 04:56 | 28.94850 | -13.60730 | 48 ft | 0 kts | 27° |
| 2026-05-07 04:58 | 28.94863 | -13.60722 | 48 ft | 5 kts | 27° |
| 2026-05-07 04:58 | 28.94903 | -13.60683 | 49 ft | 10 kts | 72° |
| 2026-05-07 04:58 | 28.94876 | -13.60598 | 47 ft | 14 kts | 120° |
| 2026-05-07 04:59 | 28.94785 | -13.60594 | 49 ft | 17 kts | 205° |
| 2026-05-07 04:59 | 28.94660 | -13.60663 | 47 ft | 23 kts | 206° |
| 2026-05-07 04:59 | 28.94492 | -13.60761 | 35 ft | 29 kts | 207° |
| 2026-05-07 04:59 | 28.94331 | -13.60854 | 29 ft | 28 kts | 207° |
| 2026-05-07 05:00 | 28.94163 | -13.60951 | 26 ft | 22 kts | 207° |
| 2026-05-07 05:00 | 28.94029 | -13.61029 | 26 ft | 21 kts | 207° |
| 2026-05-07 05:00 | 28.93899 | -13.61104 | 27 ft | 21 kts | 207° |
| 2026-05-07 05:00 | 28.93787 | -13.61169 | 23 ft | 15 kts | 207° |
| 2026-05-07 05:01 | 28.93710 | -13.61214 | 24 ft | 10 kts | 205° |
| 2026-05-07 05:01 | 28.93650 | -13.61197 | 23 ft | 10 kts | 131° |
| 2026-05-07 05:01 | 28.93618 | -13.61130 | 23 ft | 10 kts | 112° |
| 2026-05-07 05:01 | 28.93627 | -13.61059 | 26 ft | 9 kts | 48° |
| 2026-05-07 05:02 | 28.93682 | -13.61021 | 26 ft | 9 kts | 26° |
| 2026-05-07 05:02 | 28.93863 | -13.60916 | 29 ft | 62 kts | 27° |
| 2026-05-07 05:02 | 28.94464 | -13.60571 | 33 ft | 129 kts | 26° |
| 2026-05-07 05:02 | 28.95433 | -13.60013 | 60 ft | 180 kts | 26° |
| 2026-05-07 05:03 | 28.96518 | -13.59354 | 855 ft | 179 kts | 32° |
| 2026-05-07 05:03 | 28.97350 | -13.58191 | 1382 ft | 201 kts | 59° |
| 2026-05-07 05:03 | 28.98310 | -13.57049 | 1700 ft | 214 kts | 10° |
| 2026-05-07 05:03 | 28.99727 | -13.57355 | 2518 ft | 198 kts | 355° |
| 2026-05-07 05:04 | 29.01022 | -13.57100 | 3236 ft | 204 kts | 27° |
| 2026-05-07 05:04 | 29.02135 | -13.55962 | 3606 ft | 229 kts | 51° |
| 2026-05-07 05:04 | 29.03089 | -13.54354 | 3985 ft | 255 kts | 54° |
| 2026-05-07 05:04 | 29.04075 | -13.52602 | 4673 ft | 267 kts | 53° |
| 2026-05-07 05:05 | 29.05089 | -13.50797 | 5475 ft | 273 kts | 53° |
| 2026-05-07 05:05 | 29.06129 | -13.48959 | 6271 ft | 279 kts | 54° |
| 2026-05-07 05:05 | 29.07201 | -13.47076 | 6999 ft | 286 kts | 54° |
| 2026-05-07 05:05 | 29.08296 | -13.45155 | 7795 ft | 290 kts | 54° |
| 2026-05-07 05:06 | 29.09448 | -13.43246 | 8576 ft | 293 kts | 44° |
| 2026-05-07 05:06 | 29.11092 | -13.41918 | 9345 ft | 291 kts | 22° |
| 2026-05-07 05:06 | 29.12940 | -13.40945 | 10126 ft | 294 kts | 20° |
| 2026-05-07 05:06 | 29.14871 | -13.39976 | 10480 ft | 315 kts | 20° |
| 2026-05-07 05:07 | 29.16951 | -13.38931 | 10709 ft | 337 kts | 21° |
| 2026-05-07 05:07 | 29.19128 | -13.37820 | 11228 ft | 347 kts | 21° |
| 2026-05-07 05:07 | 29.21343 | -13.36674 | 11822 ft | 350 kts | 21° |
| 2026-05-07 05:07 | 29.23564 | -13.35519 | 11960 ft | 350 kts | 21° |
| 2026-05-07 05:08 | 29.25780 | -13.34359 | 11982 ft | 351 kts | 23° |
| 2026-05-07 05:08 | 29.27776 | -13.32729 | 11980 ft | 358 kts | 44° |
| 2026-05-07 05:08 | 29.29291 | -13.30451 | 12003 ft | 361 kts | 53° |
| 2026-05-07 05:08 | 29.30692 | -13.28092 | 11989 ft | 362 kts | 53° |
| 2026-05-07 05:09 | 29.32101 | -13.25701 | 11988 ft | 363 kts | 53° |
| 2026-05-07 05:09 | 29.33528 | -13.23319 | 11990 ft | 363 kts | 52° |
| 2026-05-07 05:09 | 29.34970 | -13.20945 | 11987 ft | 363 kts | 52° |
| 2026-05-07 05:09 | 29.36413 | -13.18577 | 11988 ft | 362 kts | 52° |
| 2026-05-07 05:10 | 29.37856 | -13.16211 | 11988 ft | 362 kts | 52° |
| 2026-05-07 05:10 | 29.39257 | -13.13910 | 11990 ft | 361 kts | 52° |
| 2026-05-07 05:10 | 29.40691 | -13.11555 | 11990 ft | 361 kts | 52° |
| 2026-05-07 05:10 | 29.42128 | -13.09191 | 11988 ft | 361 kts | 52° |
| 2026-05-07 05:11 | 29.43564 | -13.06829 | 11988 ft | 360 kts | 52° |
| 2026-05-07 05:11 | 29.44994 | -13.04475 | 11990 ft | 360 kts | 52° |
| 2026-05-07 05:11 | 29.46425 | -13.02118 | 11990 ft | 360 kts | 52° |
| 2026-05-07 05:11 | 29.47857 | -12.99756 | 12038 ft | 364 kts | 52° |
| 2026-05-07 05:12 | 29.49309 | -12.97359 | 12678 ft | 367 kts | 52° |
| 2026-05-07 05:12 | 29.50765 | -12.94948 | 13519 ft | 367 kts | 52° |
| 2026-05-07 05:12 | 29.52226 | -12.92530 | 14199 ft | 370 kts | 52° |
| 2026-05-07 05:12 | 29.53700 | -12.90087 | 14825 ft | 374 kts | 53° |
| 2026-05-07 05:13 | 29.55187 | -12.87621 | 15479 ft | 376 kts | 53° |
| 2026-05-07 05:13 | 29.56681 | -12.85144 | 16135 ft | 379 kts | 53° |
| 2026-05-07 05:13 | 29.58189 | -12.82640 | 16776 ft | 382 kts | 53° |
| 2026-05-07 05:13 | 29.59703 | -12.80126 | 17406 ft | 385 kts | 53° |
| 2026-05-07 05:14 | 29.61232 | -12.77584 | 18027 ft | 388 kts | 53° |
| 2026-05-07 05:14 | 29.62774 | -12.75021 | 18589 ft | 391 kts | 53° |
| 2026-05-07 05:14 | 29.64307 | -12.72469 | 19115 ft | 394 kts | 53° |
| 2026-05-07 05:14 | 29.65869 | -12.69867 | 19635 ft | 397 kts | 52° |
| 2026-05-07 05:15 | 29.67447 | -12.67238 | 20174 ft | 400 kts | 52° |
| 2026-05-07 05:15 | 29.69031 | -12.64596 | 20711 ft | 403 kts | 52° |
| 2026-05-07 05:15 | 29.70629 | -12.61930 | 21232 ft | 406 kts | 52° |
| 2026-05-07 05:15 | 29.72240 | -12.59242 | 21742 ft | 409 kts | 51° |
| 2026-05-07 05:16 | 29.73859 | -12.56535 | 22240 ft | 413 kts | 51° |
| 2026-05-07 05:16 | 29.75487 | -12.53799 | 22738 ft | 416 kts | 51° |
| 2026-05-07 05:16 | 29.77123 | -12.51040 | 23231 ft | 419 kts | 51° |
| 2026-05-07 05:16 | 29.78774 | -12.48252 | 23687 ft | 422 kts | 51° |
| 2026-05-07 05:17 | 29.80433 | -12.45447 | 24093 ft | 425 kts | 51° |
| 2026-05-07 05:17 | 29.82101 | -12.42627 | 24524 ft | 427 kts | 51° |
| 2026-05-07 05:17 | 29.83775 | -12.39795 | 24949 ft | 429 kts | 51° |
| 2026-05-07 05:17 | 29.85458 | -12.36946 | 25361 ft | 431 kts | 51° |
| 2026-05-07 05:18 | 29.87149 | -12.34081 | 25766 ft | 433 kts | 51° |
| 2026-05-07 05:18 | 29.88849 | -12.31201 | 26167 ft | 436 kts | 51° |
| 2026-05-07 05:18 | 29.90554 | -12.28309 | 26552 ft | 438 kts | 51° |
| 2026-05-07 05:18 | 29.92271 | -12.25395 | 26933 ft | 440 kts | 51° |
| 2026-05-07 05:19 | 29.93992 | -12.22471 | 27308 ft | 442 kts | 51° |
| 2026-05-07 05:19 | 29.95726 | -12.19523 | 27680 ft | 444 kts | 51° |
| 2026-05-07 05:19 | 29.97440 | -12.16607 | 28042 ft | 447 kts | 51° |
| 2026-05-07 05:19 | 29.99186 | -12.13637 | 28398 ft | 449 kts | 51° |
| 2026-05-07 05:20 | 30.00989 | -12.10634 | 28740 ft | 449 kts | 47° |
| 2026-05-07 05:20 | 30.03047 | -12.07955 | 29074 ft | 445 kts | 39° |
| 2026-05-07 05:20 | 30.05269 | -12.05462 | 29425 ft | 446 kts | 38° |
| 2026-05-07 05:20 | 30.07495 | -12.03020 | 29747 ft | 448 kts | 38° |
| 2026-05-07 05:21 | 30.09763 | -12.00541 | 30062 ft | 450 kts | 38° |
| 2026-05-07 05:21 | 30.14302 | -11.95540 | 30699 ft | 451 kts | 38° |
| 2026-05-07 05:21 | 30.16553 | -11.93033 | 31112 ft | 448 kts | 38° |
| 2026-05-07 05:22 | 30.18791 | -11.90529 | 31499 ft | 447 kts | 38° |
| 2026-05-07 05:22 | 30.21023 | -11.88025 | 31836 ft | 447 kts | 38° |
| 2026-05-07 05:22 | 30.23256 | -11.85518 | 32154 ft | 447 kts | 38° |
| 2026-05-07 05:22 | 30.25479 | -11.83019 | 32497 ft | 446 kts | 38° |
| 2026-05-07 05:23 | 30.27699 | -11.80521 | 32866 ft | 445 kts | 38° |
| 2026-05-07 05:23 | 30.29917 | -11.78025 | 33204 ft | 444 kts | 38° |
| 2026-05-07 05:23 | 30.32127 | -11.75535 | 33521 ft | 443 kts | 38° |
| 2026-05-07 05:23 | 30.34337 | -11.73046 | 33846 ft | 443 kts | 38° |
| 2026-05-07 05:24 | 30.36540 | -11.70562 | 34143 ft | 442 kts | 38° |
| 2026-05-07 05:24 | 30.38742 | -11.68078 | 34387 ft | 442 kts | 38° |
| 2026-05-07 05:24 | 30.40952 | -11.65584 | 34601 ft | 443 kts | 38° |
| 2026-05-07 05:24 | 30.43129 | -11.63126 | 34834 ft | 443 kts | 38° |
| 2026-05-07 05:25 | 30.45334 | -11.60634 | 35074 ft | 443 kts | 38° |
| 2026-05-07 05:25 | 30.47540 | -11.58138 | 35303 ft | 443 kts | 38° |
| 2026-05-07 05:25 | 30.49747 | -11.55641 | 35519 ft | 443 kts | 38° |
| 2026-05-07 05:25 | 30.51953 | -11.53143 | 35742 ft | 443 kts | 38° |
| 2026-05-07 05:26 | 30.54157 | -11.50644 | 35963 ft | 443 kts | 39° |
| 2026-05-07 05:26 | 30.58605 | -11.45601 | 35990 ft | 448 kts | 39° |
| 2026-05-07 05:27 | 30.63053 | -11.40545 | 35978 ft | 445 kts | 39° |
| 2026-05-07 05:27 | 30.67442 | -11.35547 | 35980 ft | 440 kts | 39° |
| 2026-05-07 05:28 | 30.71813 | -11.30568 | 35983 ft | 439 kts | 38° |
| 2026-05-07 05:28 | 30.76143 | -11.25631 | 35985 ft | 438 kts | 38° |
| 2026-05-07 05:29 | 30.80498 | -11.20658 | 35982 ft | 438 kts | 39° |
| 2026-05-07 05:29 | 30.84851 | -11.15681 | 35982 ft | 439 kts | 39° |
| 2026-05-07 05:30 | 30.89216 | -11.10683 | 35985 ft | 440 kts | 39° |
| 2026-05-07 05:30 | 30.93591 | -11.05666 | 35984 ft | 442 kts | 39° |
| 2026-05-07 05:31 | 30.97975 | -11.00632 | 35983 ft | 443 kts | 39° |
| 2026-05-07 05:31 | 31.02312 | -10.95645 | 35984 ft | 444 kts | 39° |
| 2026-05-07 05:32 | 31.06719 | -10.90570 | 35982 ft | 445 kts | 39° |
| 2026-05-07 05:32 | 31.11096 | -10.85523 | 35976 ft | 446 kts | 39° |
| 2026-05-07 05:33 | 31.15503 | -10.80434 | 35975 ft | 446 kts | 39° |
| 2026-05-07 05:33 | 31.19912 | -10.75334 | 35976 ft | 445 kts | 39° |
| 2026-05-07 05:34 | 31.24314 | -10.70237 | 35977 ft | 445 kts | 39° |
| 2026-05-07 05:34 | 31.28707 | -10.65144 | 35976 ft | 445 kts | 39° |
| 2026-05-07 05:35 | 31.33097 | -10.60046 | 35975 ft | 444 kts | 39° |
| 2026-05-07 05:35 | 31.37477 | -10.54954 | 35978 ft | 444 kts | 39° |
| 2026-05-07 05:36 | 31.41852 | -10.49860 | 35975 ft | 443 kts | 39° |
| 2026-05-07 05:36 | 31.46197 | -10.44794 | 35973 ft | 443 kts | 39° |
| 2026-05-07 05:37 | 31.50562 | -10.39697 | 35976 ft | 443 kts | 39° |
| 2026-05-07 05:37 | 31.54924 | -10.34597 | 35977 ft | 443 kts | 39° |
| 2026-05-07 05:38 | 31.59282 | -10.29495 | 35978 ft | 443 kts | 39° |
| 2026-05-07 05:38 | 31.63636 | -10.24391 | 35976 ft | 443 kts | 39° |
| 2026-05-07 05:39 | 31.67996 | -10.19271 | 35979 ft | 443 kts | 39° |
| 2026-05-07 05:39 | 31.71615 | -10.15018 | 35974 ft | 443 kts | 39° |
| 2026-05-07 05:40 | 31.76686 | -10.09047 | 35976 ft | 444 kts | 39° |
| 2026-05-07 05:40 | 31.81044 | -10.03908 | 35978 ft | 444 kts | 39° |
| 2026-05-07 05:41 | 31.84697 | -9.99596 | 35981 ft | 444 kts | 39° |
| 2026-05-07 05:41 | 31.89059 | -9.94439 | 35978 ft | 444 kts | 39° |
| 2026-05-07 05:42 | 31.93394 | -9.89307 | 35977 ft | 444 kts | 39° |
| 2026-05-07 05:42 | 31.97755 | -9.84137 | 35972 ft | 444 kts | 39° |
| 2026-05-07 05:43 | 32.02061 | -9.79024 | 35974 ft | 444 kts | 39° |
| 2026-05-07 05:43 | 32.06407 | -9.73856 | 35974 ft | 444 kts | 39° |
| 2026-05-07 05:44 | 32.10750 | -9.68685 | 35973 ft | 443 kts | 39° |
| 2026-05-07 05:44 | 32.15088 | -9.63513 | 35978 ft | 443 kts | 39° |
| 2026-05-07 05:45 | 32.19421 | -9.58340 | 35977 ft | 443 kts | 39° |
| 2026-05-07 05:45 | 32.23752 | -9.53161 | 35974 ft | 442 kts | 39° |
| 2026-05-07 05:46 | 32.28043 | -9.48022 | 35974 ft | 442 kts | 39° |
| 2026-05-07 05:46 | 32.32361 | -9.42844 | 35973 ft | 442 kts | 39° |
| 2026-05-07 05:47 | 32.36668 | -9.37672 | 35975 ft | 441 kts | 39° |
| 2026-05-07 05:47 | 32.40973 | -9.32494 | 35974 ft | 441 kts | 39° |
| 2026-05-07 05:48 | 32.45275 | -9.27312 | 35978 ft | 441 kts | 39° |
| 2026-05-07 05:48 | 32.49569 | -9.22133 | 35980 ft | 441 kts | 39° |
| 2026-05-07 05:49 | 32.53859 | -9.16951 | 35981 ft | 440 kts | 39° |
| 2026-05-07 05:49 | 32.58155 | -9.11755 | 35985 ft | 441 kts | 39° |
| 2026-05-07 05:50 | 32.62447 | -9.06556 | 35979 ft | 441 kts | 39° |
| 2026-05-07 05:50 | 32.66736 | -9.01352 | 35975 ft | 441 kts | 39° |
| 2026-05-07 05:51 | 32.70996 | -8.96176 | 35975 ft | 441 kts | 39° |
| 2026-05-07 05:51 | 32.75283 | -8.90959 | 35977 ft | 441 kts | 39° |
| 2026-05-07 05:52 | 32.79567 | -8.85739 | 35972 ft | 440 kts | 39° |
| 2026-05-07 05:52 | 32.83834 | -8.80532 | 35975 ft | 439 kts | 40° |
| 2026-05-07 05:53 | 32.88096 | -8.75323 | 35966 ft | 439 kts | 40° |
| 2026-05-07 05:53 | 32.92322 | -8.70150 | 35981 ft | 438 kts | 40° |
| 2026-05-07 05:54 | 32.96572 | -8.64942 | 35971 ft | 438 kts | 40° |
| 2026-05-07 05:54 | 33.00770 | -8.59788 | 35971 ft | 438 kts | 40° |
| 2026-05-07 05:55 | 33.05014 | -8.54571 | 35975 ft | 438 kts | 40° |
| 2026-05-07 05:55 | 33.09233 | -8.49377 | 35973 ft | 439 kts | 40° |
| 2026-05-07 05:56 | 33.13484 | -8.44134 | 35974 ft | 439 kts | 40° |
| 2026-05-07 05:56 | 33.17740 | -8.38880 | 35974 ft | 440 kts | 40° |
| 2026-05-07 05:57 | 33.22420 | -8.34333 | 35975 ft | 430 kts | 26° |
| 2026-05-07 05:57 | 33.27502 | -8.30566 | 35975 ft | 430 kts | 25° |
| 2026-05-07 05:58 | 33.32608 | -8.26803 | 35973 ft | 431 kts | 26° |
| 2026-05-07 05:58 | 33.37704 | -8.22994 | 35972 ft | 432 kts | 26° |
| 2026-05-07 05:59 | 33.42799 | -8.19151 | 35970 ft | 433 kts | 26° |
| 2026-05-07 05:59 | 33.47894 | -8.15295 | 35971 ft | 433 kts | 26° |
| 2026-05-07 06:00 | 33.52962 | -8.11453 | 35968 ft | 433 kts | 26° |
| 2026-05-07 06:00 | 33.58057 | -8.07586 | 35968 ft | 434 kts | 26° |
| 2026-05-07 06:01 | 33.63156 | -8.03712 | 35969 ft | 434 kts | 26° |
| 2026-05-07 06:01 | 33.68251 | -7.99834 | 35964 ft | 434 kts | 26° |
| 2026-05-07 06:02 | 33.73351 | -7.95948 | 35975 ft | 434 kts | 26° |
| 2026-05-07 06:02 | 33.78452 | -7.92056 | 35973 ft | 434 kts | 26° |
| 2026-05-07 06:03 | 33.83550 | -7.88160 | 35961 ft | 434 kts | 26° |
| 2026-05-07 06:03 | 33.88650 | -7.84257 | 35965 ft | 434 kts | 26° |
| 2026-05-07 06:04 | 33.93751 | -7.80348 | 35964 ft | 435 kts | 26° |
| 2026-05-07 06:04 | 33.98824 | -7.76455 | 35965 ft | 435 kts | 26° |
| 2026-05-07 06:05 | 34.03853 | -7.72590 | 35968 ft | 435 kts | 26° |
| 2026-05-07 06:05 | 34.08968 | -7.68653 | 35967 ft | 436 kts | 26° |
| 2026-05-07 06:06 | 34.14081 | -7.64712 | 35968 ft | 436 kts | 26° |
| 2026-05-07 06:06 | 34.19196 | -7.60764 | 35968 ft | 436 kts | 26° |
| 2026-05-07 06:07 | 34.24313 | -7.56808 | 35964 ft | 437 kts | 26° |
| 2026-05-07 06:07 | 34.29438 | -7.52841 | 35963 ft | 437 kts | 26° |
| 2026-05-07 06:08 | 34.34563 | -7.48867 | 35963 ft | 438 kts | 27° |
| 2026-05-07 06:08 | 34.39693 | -7.44884 | 35964 ft | 438 kts | 27° |
| 2026-05-07 06:09 | 34.44830 | -7.40889 | 35963 ft | 439 kts | 27° |
| 2026-05-07 06:09 | 34.49973 | -7.36884 | 35958 ft | 440 kts | 27° |
| 2026-05-07 06:10 | 34.55123 | -7.32868 | 35960 ft | 441 kts | 27° |
| 2026-05-07 06:10 | 34.60286 | -7.28835 | 35959 ft | 442 kts | 27° |
| 2026-05-07 06:11 | 34.65458 | -7.24789 | 35955 ft | 442 kts | 27° |
| 2026-05-07 06:11 | 34.70607 | -7.20755 | 35960 ft | 443 kts | 27° |
| 2026-05-07 06:12 | 34.75792 | -7.16687 | 35955 ft | 444 kts | 27° |
| 2026-05-07 06:12 | 34.80989 | -7.12603 | 35954 ft | 445 kts | 27° |
| 2026-05-07 06:13 | 34.86191 | -7.08508 | 35950 ft | 446 kts | 27° |
| 2026-05-07 06:13 | 34.91403 | -7.04400 | 35950 ft | 446 kts | 27° |
| 2026-05-07 06:14 | 34.96621 | -7.00281 | 35949 ft | 446 kts | 27° |
| 2026-05-07 06:14 | 35.01788 | -6.96195 | 35947 ft | 447 kts | 27° |
| 2026-05-07 06:15 | 35.06971 | -6.92090 | 35937 ft | 447 kts | 26° |
| 2026-05-07 06:15 | 35.12190 | -6.87951 | 35934 ft | 447 kts | 26° |
| 2026-05-07 06:16 | 35.17408 | -6.83806 | 35935 ft | 447 kts | 26° |
| 2026-05-07 06:16 | 35.22629 | -6.79651 | 35931 ft | 448 kts | 26° |
| 2026-05-07 06:17 | 35.27856 | -6.75486 | 35928 ft | 448 kts | 26° |
| 2026-05-07 06:17 | 35.32998 | -6.71142 | 35916 ft | 455 kts | 36° |
| 2026-05-07 06:18 | 35.37133 | -6.65151 | 35915 ft | 469 kts | 54° |
| 2026-05-07 06:18 | 35.40350 | -6.58165 | 35923 ft | 471 kts | 56° |
| 2026-05-07 06:19 | 35.43578 | -6.51215 | 35917 ft | 472 kts | 55° |
| 2026-05-07 06:19 | 35.46960 | -6.44312 | 35916 ft | 472 kts | 53° |
| 2026-05-07 06:20 | 35.50458 | -6.37479 | 35912 ft | 473 kts | 53° |
| 2026-05-07 06:20 | 35.53958 | -6.30620 | 35910 ft | 475 kts | 54° |
| 2026-05-07 06:21 | 35.57451 | -6.23709 | 35912 ft | 476 kts | 54° |
| 2026-05-07 06:21 | 35.60940 | -6.16774 | 35908 ft | 478 kts | 54° |
| 2026-05-07 06:22 | 35.64437 | -6.09811 | 35908 ft | 479 kts | 54° |
| 2026-05-07 06:22 | 35.69684 | -5.99339 | 35914 ft | 480 kts | 55° |
| 2026-05-07 06:23 | 35.73151 | -5.92397 | 35915 ft | 481 kts | 56° |
| 2026-05-07 06:23 | 35.76227 | -5.85047 | 35920 ft | 484 kts | 62° |
| 2026-05-07 06:24 | 35.79076 | -5.77532 | 35910 ft | 484 kts | 62° |
| 2026-05-07 06:24 | 35.81983 | -5.70048 | 35917 ft | 484 kts | 62° |
| 2026-05-07 06:25 | 35.84938 | -5.62593 | 35911 ft | 484 kts | 61° |
| 2026-05-07 06:25 | 35.87955 | -5.55175 | 35933 ft | 483 kts | 61° |
| 2026-05-07 06:26 | 35.90966 | -5.47763 | 35936 ft | 483 kts | 61° |
| 2026-05-07 06:26 | 35.93959 | -5.40344 | 35938 ft | 483 kts | 62° |
| 2026-05-07 06:27 | 35.96943 | -5.32921 | 35939 ft | 482 kts | 62° |
| 2026-05-07 06:27 | 35.99919 | -5.25505 | 35939 ft | 482 kts | 62° |
| 2026-05-07 06:28 | 36.02892 | -5.18264 | 35937 ft | 481 kts | 61° |
| 2026-05-07 06:28 | 36.05984 | -5.10935 | 35936 ft | 481 kts | 61° |
| 2026-05-07 06:29 | 36.09061 | -5.03592 | 35935 ft | 481 kts | 61° |
| 2026-05-07 06:29 | 36.12121 | -4.96237 | 35928 ft | 481 kts | 62° |
| 2026-05-07 06:30 | 36.14748 | -4.90184 | 35904 ft | 480 kts | 55° |
| 2026-05-07 06:30 | 36.18991 | -4.83897 | 35934 ft | 475 kts | 43° |
| 2026-05-07 06:31 | 36.23632 | -4.78055 | 35917 ft | 476 kts | 43° |
| 2026-05-07 06:31 | 36.28271 | -4.72187 | 35913 ft | 477 kts | 43° |
| 2026-05-07 06:32 | 36.32838 | -4.66319 | 35925 ft | 478 kts | 44° |
| 2026-05-07 06:32 | 36.37437 | -4.60361 | 35930 ft | 479 kts | 44° |
| 2026-05-07 06:33 | 36.42046 | -4.54375 | 35914 ft | 480 kts | 44° |
| 2026-05-07 06:33 | 36.46660 | -4.48375 | 35911 ft | 480 kts | 44° |
| 2026-05-07 06:34 | 36.51277 | -4.42362 | 35912 ft | 481 kts | 44° |
| 2026-05-07 06:34 | 36.55894 | -4.36340 | 35915 ft | 481 kts | 44° |
| 2026-05-07 06:35 | 36.60511 | -4.30306 | 35918 ft | 481 kts | 45° |
| 2026-05-07 06:35 | 36.65127 | -4.24261 | 35917 ft | 481 kts | 45° |
| 2026-05-07 06:36 | 36.69738 | -4.18211 | 35922 ft | 481 kts | 45° |
| 2026-05-07 06:36 | 36.74317 | -4.12194 | 35921 ft | 481 kts | 45° |
| 2026-05-07 06:37 | 36.78928 | -4.06122 | 35927 ft | 481 kts | 45° |
| 2026-05-07 06:37 | 36.83532 | -4.00048 | 35925 ft | 482 kts | 45° |
| 2026-05-07 06:38 | 36.88136 | -3.93962 | 35936 ft | 482 kts | 45° |
| 2026-05-07 06:38 | 36.92739 | -3.87867 | 35937 ft | 482 kts | 45° |
| 2026-05-07 06:39 | 36.97337 | -3.81766 | 35952 ft | 482 kts | 45° |
| 2026-05-07 06:39 | 37.01878 | -3.75730 | 35957 ft | 482 kts | 46° |
| 2026-05-07 06:40 | 37.06470 | -3.69614 | 35962 ft | 482 kts | 46° |
| 2026-05-07 06:40 | 37.10904 | -3.63326 | 35955 ft | 482 kts | 54° |
| 2026-05-07 06:41 | 37.14078 | -3.56078 | 35970 ft | 475 kts | 65° |
| 2026-05-07 06:41 | 37.16921 | -3.48624 | 35954 ft | 473 kts | 65° |
| 2026-05-07 06:42 | 37.18361 | -3.44902 | 35626 ft | 474 kts | 65° |
| 2026-05-07 06:42 | 37.19808 | -3.41212 | 35303 ft | 468 kts | 65° |
| 2026-05-07 06:42 | 37.21250 | -3.37562 | 34912 ft | 465 kts | 65° |
| 2026-05-07 06:42 | 37.22684 | -3.33936 | 34535 ft | 463 kts | 66° |
| 2026-05-07 06:43 | 37.24107 | -3.30331 | 34157 ft | 460 kts | 66° |
| 2026-05-07 06:43 | 37.25520 | -3.26741 | 33734 ft | 458 kts | 66° |
| 2026-05-07 06:43 | 37.26926 | -3.23151 | 33285 ft | 456 kts | 66° |
| 2026-05-07 06:43 | 37.28319 | -3.19588 | 32880 ft | 453 kts | 66° |
| 2026-05-07 06:44 | 37.29701 | -3.16047 | 32496 ft | 449 kts | 66° |
| 2026-05-07 06:44 | 37.31072 | -3.12532 | 32115 ft | 446 kts | 66° |
| 2026-05-07 06:44 | 37.32429 | -3.09047 | 31761 ft | 443 kts | 66° |
| 2026-05-07 06:44 | 37.33760 | -3.05628 | 31399 ft | 440 kts | 66° |
| 2026-05-07 06:45 | 37.35100 | -3.02180 | 31041 ft | 438 kts | 66° |
| 2026-05-07 06:45 | 37.36448 | -2.98709 | 30675 ft | 435 kts | 66° |
| 2026-05-07 06:45 | 37.37752 | -2.95346 | 30325 ft | 432 kts | 66° |
| 2026-05-07 06:45 | 37.39063 | -2.91962 | 29959 ft | 430 kts | 66° |
| 2026-05-07 06:46 | 37.40367 | -2.88595 | 29554 ft | 427 kts | 67° |
| 2026-05-07 06:46 | 37.41661 | -2.85251 | 29181 ft | 423 kts | 66° |
| 2026-05-07 06:46 | 37.42940 | -2.81945 | 28845 ft | 418 kts | 67° |
| 2026-05-07 06:46 | 37.44207 | -2.78669 | 28468 ft | 414 kts | 67° |
| 2026-05-07 06:47 | 37.45461 | -2.75426 | 28113 ft | 411 kts | 67° |
| 2026-05-07 06:47 | 37.46703 | -2.72207 | 27758 ft | 407 kts | 67° |
| 2026-05-07 06:47 | 37.47937 | -2.69007 | 27397 ft | 405 kts | 67° |
| 2026-05-07 06:47 | 37.49165 | -2.65816 | 27050 ft | 404 kts | 67° |
| 2026-05-07 06:48 | 37.50390 | -2.62633 | 26695 ft | 402 kts | 67° |
| 2026-05-07 06:48 | 37.51606 | -2.59467 | 26356 ft | 401 kts | 67° |
| 2026-05-07 06:48 | 37.52817 | -2.56311 | 26009 ft | 400 kts | 67° |
| 2026-05-07 06:48 | 37.54029 | -2.53150 | 25658 ft | 400 kts | 67° |
| 2026-05-07 06:49 | 37.55237 | -2.49995 | 25320 ft | 398 kts | 67° |
| 2026-05-07 06:49 | 37.56420 | -2.46904 | 24976 ft | 396 kts | 68° |
| 2026-05-07 06:49 | 37.57629 | -2.43743 | 24621 ft | 394 kts | 68° |
| 2026-05-07 06:49 | 37.58800 | -2.40675 | 24285 ft | 392 kts | 68° |
| 2026-05-07 06:50 | 37.59978 | -2.37588 | 23944 ft | 390 kts | 68° |
| 2026-05-07 06:50 | 37.61154 | -2.34504 | 23600 ft | 389 kts | 68° |
| 2026-05-07 06:50 | 37.62326 | -2.31426 | 23189 ft | 389 kts | 67° |
| 2026-05-07 06:50 | 37.63493 | -2.28361 | 22807 ft | 387 kts | 67° |
| 2026-05-07 06:51 | 37.64653 | -2.25315 | 22478 ft | 384 kts | 67° |
| 2026-05-07 06:51 | 37.65807 | -2.22281 | 22110 ft | 382 kts | 67° |
| 2026-05-07 06:51 | 37.66954 | -2.19264 | 21771 ft | 380 kts | 67° |
| 2026-05-07 06:51 | 37.68094 | -2.16258 | 21411 ft | 378 kts | 67° |
| 2026-05-07 06:52 | 37.69226 | -2.13274 | 21061 ft | 376 kts | 67° |
| 2026-05-07 06:52 | 37.70350 | -2.10307 | 20717 ft | 373 kts | 66° |
| 2026-05-07 06:52 | 37.71466 | -2.07359 | 20376 ft | 371 kts | 66° |
| 2026-05-07 06:52 | 37.72574 | -2.04427 | 20040 ft | 369 kts | 66° |
| 2026-05-07 06:53 | 37.73677 | -2.01507 | 19695 ft | 367 kts | 66° |
| 2026-05-07 06:53 | 37.74772 | -1.98604 | 19358 ft | 365 kts | 66° |
| 2026-05-07 06:53 | 37.75861 | -1.95716 | 19020 ft | 363 kts | 66° |
| 2026-05-07 06:53 | 37.76943 | -1.92840 | 18675 ft | 362 kts | 66° |
| 2026-05-07 06:54 | 37.78021 | -1.89977 | 18343 ft | 360 kts | 66° |
| 2026-05-07 06:54 | 37.79078 | -1.87164 | 17973 ft | 358 kts | 65° |
| 2026-05-07 06:54 | 37.80143 | -1.84329 | 17594 ft | 356 kts | 65° |
| 2026-05-07 06:54 | 37.81202 | -1.81505 | 17237 ft | 354 kts | 65° |
| 2026-05-07 06:55 | 37.82255 | -1.78698 | 16882 ft | 351 kts | 65° |
| 2026-05-07 06:55 | 37.83297 | -1.75916 | 16543 ft | 348 kts | 65° |
| 2026-05-07 06:55 | 37.84328 | -1.73159 | 16207 ft | 345 kts | 65° |
| 2026-05-07 06:55 | 37.85351 | -1.70421 | 15871 ft | 343 kts | 65° |
| 2026-05-07 06:56 | 37.86365 | -1.67707 | 15537 ft | 340 kts | 65° |
| 2026-05-07 06:56 | 37.87372 | -1.65008 | 15202 ft | 338 kts | 65° |
| 2026-05-07 06:56 | 37.88371 | -1.62330 | 14887 ft | 335 kts | 65° |
| 2026-05-07 06:56 | 37.89361 | -1.59672 | 14568 ft | 333 kts | 65° |
| 2026-05-07 06:57 | 37.90351 | -1.57034 | 14235 ft | 330 kts | 63° |
| 2026-05-07 06:57 | 37.91668 | -1.54690 | 14024 ft | 324 kts | 45° |
| 2026-05-07 06:57 | 37.93270 | -1.52767 | 13974 ft | 312 kts | 42° |
| 2026-05-07 06:57 | 37.94861 | -1.50951 | 13830 ft | 305 kts | 42° |
| 2026-05-07 06:58 | 37.96434 | -1.49167 | 13507 ft | 303 kts | 42° |
| 2026-05-07 06:58 | 37.97998 | -1.47382 | 13161 ft | 302 kts | 42° |
| 2026-05-07 06:58 | 37.99553 | -1.45597 | 12842 ft | 301 kts | 43° |
| 2026-05-07 06:58 | 38.01043 | -1.43876 | 12535 ft | 297 kts | 43° |
| 2026-05-07 06:59 | 38.02558 | -1.42119 | 12056 ft | 295 kts | 43° |
| 2026-05-07 06:59 | 38.04080 | -1.40350 | 11415 ft | 298 kts | 43° |
| 2026-05-07 06:59 | 38.05615 | -1.38561 | 10816 ft | 300 kts | 43° |
| 2026-05-07 06:59 | 38.07157 | -1.36762 | 10213 ft | 302 kts | 43° |
| 2026-05-07 07:00 | 38.08684 | -1.34978 | 9603 ft | 303 kts | 44° |
| 2026-05-07 07:00 | 38.10239 | -1.33161 | 8941 ft | 304 kts | 44° |
| 2026-05-07 07:00 | 38.11789 | -1.31347 | 8460 ft | 299 kts | 44° |
| 2026-05-07 07:00 | 38.13283 | -1.29600 | 8207 ft | 286 kts | 44° |
| 2026-05-07 07:01 | 38.14724 | -1.27913 | 7949 ft | 276 kts | 44° |
| 2026-05-07 07:01 | 38.16114 | -1.26285 | 7682 ft | 269 kts | 44° |
| 2026-05-07 07:01 | 38.17480 | -1.24683 | 7425 ft | 266 kts | 44° |
| 2026-05-07 07:01 | 38.18834 | -1.23094 | 7180 ft | 265 kts | 44° |
| 2026-05-07 07:02 | 38.20170 | -1.21526 | 7076 ft | 258 kts | 45° |
| 2026-05-07 07:02 | 38.21497 | -1.19954 | 6997 ft | 263 kts | 48° |
| 2026-05-07 07:02 | 38.22468 | -1.18007 | 6919 ft | 263 kts | 69° |
| 2026-05-07 07:02 | 38.23152 | -1.15842 | 6841 ft | 264 kts | 70° |
| 2026-05-07 07:03 | 38.23826 | -1.13684 | 6753 ft | 262 kts | 70° |
| 2026-05-07 07:03 | 38.24498 | -1.11540 | 6667 ft | 261 kts | 70° |
| 2026-05-07 07:03 | 38.25172 | -1.09399 | 6581 ft | 260 kts | 70° |
| 2026-05-07 07:03 | 38.25845 | -1.07276 | 6528 ft | 255 kts | 70° |
| 2026-05-07 07:04 | 38.26491 | -1.05243 | 6425 ft | 247 kts | 70° |
| 2026-05-07 07:04 | 38.26922 | -1.03888 | 6363 ft | 242 kts | 70° |
| 2026-05-07 07:04 | 38.27552 | -1.01910 | 6257 ft | 234 kts | 70° |
| 2026-05-07 07:04 | 38.28153 | -1.00022 | 6157 ft | 227 kts | 70° |
| 2026-05-07 07:05 | 38.28742 | -0.98169 | 5973 ft | 225 kts | 70° |
| 2026-05-07 07:05 | 38.29329 | -0.96325 | 5732 ft | 224 kts | 70° |
| 2026-05-07 07:05 | 38.29911 | -0.94495 | 5533 ft | 222 kts | 70° |
| 2026-05-07 07:05 | 38.30490 | -0.92677 | 5288 ft | 221 kts | 70° |
| 2026-05-07 07:06 | 38.31067 | -0.90861 | 5056 ft | 221 kts | 70° |
| 2026-05-07 07:06 | 38.31641 | -0.89054 | 4825 ft | 220 kts | 70° |
| 2026-05-07 07:06 | 38.32215 | -0.87247 | 4576 ft | 220 kts | 70° |
| 2026-05-07 07:06 | 38.32435 | -0.85366 | 4293 ft | 216 kts | 102° |
| 2026-05-07 07:07 | 38.32101 | -0.83550 | 4179 ft | 206 kts | 101° |
| 2026-05-07 07:07 | 38.31850 | -0.81773 | 3910 ft | 203 kts | 100° |
| 2026-05-07 07:07 | 38.31609 | -0.80017 | 3648 ft | 199 kts | 100° |
| 2026-05-07 07:07 | 38.31367 | -0.78285 | 3392 ft | 199 kts | 100° |
| 2026-05-07 07:08 | 38.31122 | -0.76538 | 3129 ft | 202 kts | 100° |
| 2026-05-07 07:08 | 38.30873 | -0.74781 | 2858 ft | 201 kts | 99° |
| 2026-05-07 07:08 | 38.30628 | -0.73037 | 2587 ft | 198 kts | 99° |
| 2026-05-07 07:08 | 38.30389 | -0.71341 | 2332 ft | 190 kts | 99° |
| 2026-05-07 07:09 | 38.30165 | -0.69748 | 2080 ft | 180 kts | 99° |
| 2026-05-07 07:09 | 38.29953 | -0.68240 | 1878 ft | 165 kts | 98° |
| 2026-05-07 07:09 | 38.29761 | -0.66869 | 1636 ft | 150 kts | 98° |
| 2026-05-07 07:09 | 38.29585 | -0.65613 | 1435 ft | 143 kts | 98° |
| 2026-05-07 07:10 | 38.29411 | -0.64363 | 1243 ft | 144 kts | 98° |
| 2026-05-07 07:10 | 38.29233 | -0.63095 | 1056 ft | 147 kts | 98° |
| 2026-05-07 07:10 | 38.29054 | -0.61816 | 853 ft | 147 kts | 98° |
| 2026-05-07 07:10 | 38.28875 | -0.60538 | 665 ft | 146 kts | 98° |
| 2026-05-07 07:11 | 38.28702 | -0.59285 | 421 ft | 142 kts | 99° |
| 2026-05-07 07:11 | 38.28533 | -0.58066 | 277 ft | 139 kts | 99° |
| 2026-05-07 07:11 | 38.28365 | -0.56864 | 135 ft | 133 kts | 100° |
| 2026-05-07 07:11 | 38.28221 | -0.55844 | 103 ft | 96 kts | 100° |
| 2026-05-07 07:12 | 38.28136 | -0.55227 | 87 ft | 40 kts | 100° |
| 2026-05-07 07:12 | 38.28131 | -0.54969 | 74 ft | 27 kts | 80° |
| 2026-05-07 07:12 | 38.28175 | -0.54783 | 62 ft | 15 kts | 70° |
| 2026-05-07 07:12 | 38.28232 | -0.54720 | 61 ft | 10 kts | 334° |
| 2026-05-07 07:13 | 38.28253 | -0.54801 | 70 ft | 10 kts | 279° |
| 2026-05-07 07:13 | 38.28265 | -0.54885 | 73 ft | 10 kts | 280° |
| 2026-05-07 07:13 | 38.28276 | -0.54968 | 76 ft | 9 kts | 280° |
| 2026-05-07 07:13 | 38.28288 | -0.55048 | 81 ft | 9 kts | 280° |
| 2026-05-07 07:14 | 38.28300 | -0.55131 | 85 ft | 10 kts | 281° |
| 2026-05-07 07:14 | 38.28326 | -0.55206 | 85 ft | 10 kts | 341° |
| 2026-05-07 07:14 | 38.28382 | -0.55167 | 86 ft | 10 kts | 53° |
| 2026-05-07 07:14 | 38.28417 | -0.55097 | 88 ft | 9 kts | 65° |
| 2026-05-07 07:15 | 38.28424 | -0.55017 | 88 ft | 9 kts | 72° |
| 2026-05-07 07:15 | 38.28476 | -0.54977 | 88 ft | 9 kts | 8° |
| 2026-05-07 07:15 | 38.28539 | -0.54964 | 86 ft | 9 kts | 9° |
| 2026-05-07 07:15 | 38.28602 | -0.54950 | 86 ft | 9 kts | 10° |
| 2026-05-07 07:16 | 38.28662 | -0.54936 | 86 ft | 9 kts | 10° |
| 2026-05-07 07:16 | 38.28698 | -0.54928 | 89 ft | 4 kts | 10° |
| 2026-05-07 07:16 | 38.28718 | -0.54941 | 87 ft | 4 kts | 296° |
| 2026-05-07 07:16 | 38.28727 | -0.54974 | 86 ft | 3 kts | 287° |
| 2026-05-07 07:17 | 38.28731 | -0.54994 | 88 ft | 2 kts | 287° |
| 2026-05-07 07:17 | 38.28733 | -0.55001 | 88 ft | 1 kts | 286° |
| 2026-05-07 07:17 | 38.28734 | -0.55006 | 88 ft | 0 kts | 286° |